Webcam

Richtung Osten

METAR LOWZ 262110Z AUTO 30003KT 7000 FEW030 M00/M00 Q1006=

Richtung Westen

METAR LOWZ 262110Z AUTO 30003KT 7000 FEW030 M00/M00 Q1006=

Richtung Norden

METAR LOWZ 262110Z AUTO 30003KT 7000 FEW030 M00/M00 Q1006=